createdAt,value
2023-03-19T00:00:25.206Z,8.38
2023-03-19T00:02:52.489Z,8.55
2023-03-19T00:05:19.851Z,8.82
2023-03-19T00:07:46.954Z,8.70
2023-03-19T00:10:14.376Z,8.48
2023-03-19T00:12:41.639Z,8.63
2023-03-19T00:15:14.150Z,9.23
2023-03-19T00:17:43.337Z,9.30
2023-03-19T00:20:13.064Z,8.75
2023-03-19T00:22:40.584Z,8.07
2023-03-19T00:25:08.998Z,8.32
2023-03-19T00:27:38.228Z,8.02
2023-03-19T00:30:07.505Z,8.32
2023-03-19T00:32:35.893Z,7.53
2023-03-19T00:35:04.201Z,8.30
2023-03-19T00:37:31.263Z,7.93
2023-03-19T00:39:58.527Z,8.43
2023-03-19T00:42:26.269Z,7.40
2023-03-19T00:44:53.382Z,8.38
2023-03-19T00:47:20.468Z,7.60
2023-03-19T00:49:47.519Z,8.13
2023-03-19T00:52:14.855Z,7.40
2023-03-19T00:54:42.218Z,8.65
2023-03-19T00:57:09.590Z,8.02
2023-03-19T00:59:36.714Z,7.38
2023-03-19T01:02:04.740Z,7.88
2023-03-19T01:04:32.297Z,8.13
2023-03-19T01:09:26.859Z,7.93
2023-03-19T01:11:54.215Z,8.30
2023-03-19T01:14:21.567Z,7.45
2023-03-19T01:16:48.985Z,7.47
2023-03-19T01:19:16.629Z,7.50
2023-03-19T01:21:46.623Z,7.35
2023-03-19T01:24:14.192Z,6.97
2023-03-19T01:26:41.637Z,7.28
2023-03-19T01:29:09.427Z,7.07
2023-03-19T01:31:37.507Z,7.45
2023-03-19T01:34:05.011Z,7.50
2023-03-19T01:36:32.363Z,7.28
2023-03-19T01:39:00.095Z,7.22
2023-03-19T01:41:27.506Z,7.07
2023-03-19T01:43:54.538Z,7.05
2023-03-19T01:46:33.315Z,6.68
2023-03-19T01:49:07.026Z,7.88
2023-03-19T01:51:39.872Z,6.90
2023-03-19T01:54:12.337Z,6.85
2023-03-19T01:56:41.030Z,7.30
2023-03-19T01:59:17.200Z,6.97
2023-03-19T02:01:55.238Z,6.63
2023-03-19T02:04:23.351Z,6.13
2023-03-19T02:06:50.669Z,7.55
2023-03-19T02:09:19.119Z,6.28
2023-03-19T02:11:46.677Z,7.30
2023-03-19T02:14:13.870Z,6.40
2023-03-19T02:16:41.272Z,6.55
2023-03-19T02:19:13.703Z,6.13
2023-03-19T02:21:40.959Z,6.57
2023-03-19T02:24:30.154Z,6.05
2023-03-19T02:26:58.901Z,6.05
2023-03-19T02:29:26.294Z,5.70
2023-03-19T02:31:53.365Z,6.03
2023-03-19T02:34:41.591Z,6.18
2023-03-19T02:37:22.768Z,6.18
2023-03-19T02:40:04.664Z,6.70
2023-03-19T02:42:32.045Z,5.93
2023-03-19T02:44:59.272Z,6.07
2023-03-19T02:47:27.519Z,6.35
2023-03-19T02:49:55.181Z,6.18
2023-03-19T02:52:22.446Z,5.63
2023-03-19T02:54:49.547Z,5.85
2023-03-19T02:57:16.937Z,6.10
2023-03-19T02:59:44.125Z,5.47
2023-03-19T03:02:11.456Z,5.13
2023-03-19T03:04:38.553Z,5.95
2023-03-19T03:07:06.376Z,5.60
2023-03-19T03:09:33.656Z,5.43
2023-03-19T03:12:01.100Z,5.03
2023-03-19T03:14:28.162Z,5.47
2023-03-19T03:16:55.198Z,5.43
2023-03-19T03:19:23.548Z,6.03
2023-03-19T03:21:50.634Z,5.25
2023-03-19T03:24:17.708Z,4.85
2023-03-19T03:26:44.941Z,5.65
2023-03-19T03:29:12.170Z,5.18
2023-03-19T03:31:39.272Z,4.70
2023-03-19T03:34:06.581Z,5.55
2023-03-19T03:36:33.977Z,5.00
2023-03-19T03:39:01.156Z,4.75
2023-03-19T03:41:28.270Z,5.30
2023-03-19T03:43:55.719Z,4.80
2023-03-19T03:46:23.456Z,5.18
2023-03-19T03:48:51.651Z,4.82
2023-03-19T03:51:19.591Z,4.57
2023-03-19T03:53:46.728Z,4.63
2023-03-19T03:56:14.238Z,4.38
2023-03-19T03:58:41.798Z,4.53
2023-03-19T04:01:14.599Z,4.93
2023-03-19T04:03:41.708Z,5.10
2023-03-19T04:06:13.706Z,4.60
2023-03-19T04:08:40.774Z,4.63
2023-03-19T04:11:08.707Z,4.28
2023-03-19T04:13:37.249Z,4.55
2023-03-19T04:16:05.982Z,4.20
2023-03-19T04:18:33.071Z,4.18
2023-03-19T04:21:00.883Z,4.55
2023-03-19T04:23:28.261Z,4.32
2023-03-19T04:26:02.494Z,3.97
2023-03-19T04:28:31.633Z,4.03
2023-03-19T04:31:03.515Z,4.60
2023-03-19T04:33:31.178Z,4.57
2023-03-19T04:35:58.805Z,4.82
2023-03-19T04:38:29.478Z,4.20
2023-03-19T04:40:57.169Z,4.60
2023-03-19T04:43:25.294Z,3.83
2023-03-19T04:45:52.502Z,3.85
2023-03-19T04:48:19.612Z,4.20
2023-03-19T04:50:47.378Z,4.40
2023-03-19T04:53:14.623Z,4.15
2023-03-19T04:55:41.826Z,4.03
2023-03-19T04:58:09.384Z,4.63
2023-03-19T05:00:36.700Z,4.40
2023-03-19T05:03:03.802Z,3.78
2023-03-19T05:05:31.463Z,3.80
2023-03-19T05:07:58.727Z,4.07
2023-03-19T05:10:25.931Z,3.95
2023-03-19T05:12:53.005Z,3.92
2023-03-19T05:15:20.040Z,3.92
2023-03-19T05:17:47.163Z,3.38
2023-03-19T05:20:14.513Z,4.22
2023-03-19T05:22:41.902Z,3.78
2023-03-19T05:25:09.840Z,3.83
2023-03-19T05:27:37.100Z,4.05
2023-03-19T05:30:05.897Z,3.85
2023-03-19T05:32:33.437Z,3.72
2023-03-19T05:35:00.509Z,4.28
2023-03-19T05:37:27.661Z,4.50
2023-03-19T05:39:54.812Z,4.45
2023-03-19T05:42:22.070Z,4.80
2023-03-19T05:44:49.124Z,4.28
2023-03-19T05:47:16.456Z,5.05
2023-03-19T05:49:43.520Z,4.82
2023-03-19T05:52:11.317Z,5.00
2023-03-19T05:54:38.419Z,4.88
2023-03-19T05:57:05.563Z,4.40
2023-03-19T05:59:32.658Z,4.32
2023-03-19T06:01:59.961Z,4.57
2023-03-19T06:04:27.487Z,4.68
2023-03-19T06:06:54.673Z,4.85
2023-03-19T06:09:21.798Z,5.13
2023-03-19T06:11:48.885Z,4.10
2023-03-19T06:14:16.342Z,4.88
2023-03-19T06:16:43.379Z,5.13
2023-03-19T06:19:10.483Z,4.75
2023-03-19T06:21:37.574Z,5.13
2023-03-19T06:24:04.735Z,5.22
2023-03-19T06:26:31.970Z,5.28
2023-03-19T06:28:59.059Z,5.68
2023-03-19T06:31:26.270Z,4.82
2023-03-19T06:33:54.264Z,4.68
2023-03-19T06:36:21.356Z,4.63
2023-03-19T06:38:48.422Z,4.80
2023-03-19T06:41:16.542Z,5.22
2023-03-19T06:43:44.136Z,5.03
2023-03-19T06:46:11.861Z,5.57
2023-03-19T06:48:39.423Z,5.13
2023-03-19T06:51:07.038Z,4.65
2023-03-19T06:53:34.434Z,5.20
2023-03-19T06:56:01.581Z,4.70
2023-03-19T06:58:28.754Z,4.75
2023-03-19T07:00:56.976Z,5.03
2023-03-19T07:03:25.403Z,5.60
2023-03-19T07:05:52.596Z,4.88
2023-03-19T07:08:20.837Z,5.05
2023-03-19T07:10:47.957Z,4.78
2023-03-19T07:13:15.245Z,5.13
2023-03-19T07:15:42.292Z,5.32
2023-03-19T07:18:09.402Z,5.43
2023-03-19T07:20:36.909Z,5.20
2023-03-19T07:23:04.195Z,4.97
2023-03-19T07:25:31.431Z,5.18
2023-03-19T07:27:58.531Z,4.88
2023-03-19T07:30:25.772Z,4.30
2023-03-19T07:32:52.888Z,4.45
2023-03-19T07:35:20.009Z,4.65
2023-03-19T07:37:47.088Z,4.80
2023-03-19T07:40:14.340Z,5.07
2023-03-19T07:42:42.796Z,5.15
2023-03-19T07:45:12.204Z,5.47
2023-03-19T07:47:40.154Z,4.82
2023-03-19T07:50:07.950Z,5.00
2023-03-19T07:52:35.125Z,5.43
2023-03-19T07:55:02.346Z,5.25
2023-03-19T07:57:29.496Z,5.43
2023-03-19T07:59:56.612Z,5.10
2023-03-19T08:02:23.895Z,4.95
2023-03-19T08:04:51.443Z,4.95
2023-03-19T08:07:18.587Z,5.53
2023-03-19T08:09:45.634Z,4.90
2023-03-19T08:12:13.538Z,5.00
2023-03-19T08:14:40.715Z,5.35
2023-03-19T08:17:08.523Z,4.88
2023-03-19T08:19:35.693Z,5.20
2023-03-19T08:22:02.844Z,5.38
2023-03-19T08:24:29.946Z,4.82
2023-03-19T08:26:57.145Z,5.10
2023-03-19T08:29:26.533Z,4.90
2023-03-19T08:31:57.456Z,5.53
2023-03-19T08:34:25.358Z,4.93
2023-03-19T08:36:52.671Z,5.70
2023-03-19T08:39:19.967Z,4.78
2023-03-19T08:41:47.062Z,5.25
2023-03-19T08:44:14.273Z,5.18
2023-03-19T08:46:42.804Z,4.78
2023-03-19T08:49:09.954Z,5.30
2023-03-19T08:51:36.987Z,5.50
2023-03-19T08:54:04.264Z,5.32
2023-03-19T08:56:31.390Z,5.18
2023-03-19T08:58:58.519Z,4.90
2023-03-19T09:01:25.764Z,4.45
2023-03-19T09:03:52.860Z,5.03
2023-03-19T09:06:20.352Z,5.25
2023-03-19T09:08:47.419Z,5.07
2023-03-19T09:11:16.857Z,123.53
2023-03-19T09:13:44.362Z,114.32
2023-03-19T09:16:11.557Z,83.20
2023-03-19T09:18:39.709Z,45.38
2023-03-19T09:21:06.864Z,27.13
2023-03-19T09:23:34.246Z,23.60
2023-03-19T09:26:01.360Z,14.63
2023-03-19T09:28:28.495Z,10.57
2023-03-19T09:30:56.355Z,9.65
2023-03-19T09:33:23.488Z,7.43
2023-03-19T09:35:55.620Z,6.28
2023-03-19T09:38:23.014Z,5.97
2023-03-19T09:41:07.932Z,6.40
2023-03-19T09:44:05.919Z,4.78
2023-03-19T09:46:52.846Z,4.57
2023-03-19T09:49:32.892Z,5.32
2023-03-19T09:52:20.801Z,4.72
2023-03-19T09:54:52.721Z,5.60
2023-03-19T09:57:20.183Z,4.95
2023-03-19T09:59:48.415Z,5.47
2023-03-19T10:02:40.872Z,5.18
2023-03-19T10:05:36.019Z,5.25
2023-03-19T10:08:25.071Z,4.80
2023-03-19T10:11:16.635Z,4.63
2023-03-19T10:14:14.718Z,5.15
2023-03-19T10:16:46.903Z,4.93
2023-03-19T10:19:22.461Z,4.20
2023-03-19T10:22:00.124Z,5.13
2023-03-19T10:24:37.283Z,4.80
2023-03-19T10:27:15.252Z,4.75
2023-03-19T10:29:42.596Z,5.20
2023-03-19T10:32:21.478Z,4.65
2023-03-19T10:34:51.095Z,4.90
2023-03-19T10:37:22.096Z,4.45
2023-03-19T10:39:51.396Z,4.53
2023-03-19T10:42:58.167Z,4.37
2023-03-19T10:45:38.407Z,4.95
2023-03-19T10:48:06.669Z,4.57
2023-03-19T10:50:52.420Z,4.32
2023-03-19T10:53:39.643Z,4.28
2023-03-19T10:56:17.505Z,5.13
2023-03-19T10:58:59.962Z,4.13
2023-03-19T11:01:31.568Z,4.35
2023-03-19T11:04:01.113Z,4.25
2023-03-19T11:06:38.557Z,4.50
2023-03-19T11:09:24.059Z,4.55
2023-03-19T11:11:54.280Z,4.50
2023-03-19T11:16:58.190Z,4.32
2023-03-19T11:19:28.340Z,4.50
2023-03-19T11:22:15.876Z,3.88
2023-03-19T11:24:50.707Z,4.45
2023-03-19T11:27:17.809Z,3.65
2023-03-19T11:29:46.259Z,3.92
2023-03-19T11:32:53.161Z,4.65
2023-03-19T11:35:29.560Z,4.25
2023-03-19T11:37:59.905Z,4.00
2023-03-19T11:40:53.767Z,3.90
2023-03-19T11:43:48.513Z,4.00
2023-03-19T11:46:47.514Z,4.00
2023-03-19T11:49:54.373Z,4.30
2023-03-19T11:52:54.566Z,3.83
2023-03-19T11:55:48.632Z,4.03
2023-03-19T11:58:49.108Z,3.90
2023-03-19T12:01:55.878Z,3.70
2023-03-19T12:05:02.638Z,3.90
2023-03-19T12:07:47.243Z,3.92
2023-03-19T12:10:40.510Z,4.00
2023-03-19T12:13:32.419Z,3.75
2023-03-19T12:16:29.532Z,3.25
2023-03-19T12:19:28.325Z,3.55
2023-03-19T12:22:22.490Z,3.10
2023-03-19T12:25:21.442Z,4.07
2023-03-19T12:28:24.374Z,3.70
2023-03-19T12:31:18.878Z,3.65
2023-03-19T12:34:09.925Z,3.47
2023-03-19T12:36:46.068Z,3.22
2023-03-19T12:39:19.524Z,3.85
2023-03-19T12:41:48.637Z,3.55
2023-03-19T12:44:34.517Z,3.92
2023-03-19T12:47:16.079Z,3.63
2023-03-19T12:49:54.983Z,3.40
2023-03-19T12:52:40.329Z,3.70
2023-03-19T12:55:20.219Z,3.13
2023-03-19T12:58:12.292Z,3.20
2023-03-19T13:01:03.659Z,3.10
2023-03-19T13:04:10.416Z,3.28
2023-03-19T13:06:51.522Z,3.22
2023-03-19T13:09:33.836Z,3.33
2023-03-19T13:12:10.705Z,3.10
2023-03-19T13:15:02.441Z,2.88
2023-03-19T13:17:57.333Z,2.85
2023-03-19T13:21:04.133Z,3.00
2023-03-19T13:23:36.277Z,2.95
2023-03-19T13:26:08.179Z,3.10
2023-03-19T13:28:38.847Z,3.22
2023-03-19T13:31:08.524Z,2.95
2023-03-19T13:33:38.856Z,2.70
2023-03-19T13:36:09.128Z,3.50
2023-03-19T13:38:44.717Z,2.80
2023-03-19T13:41:50.816Z,3.00
2023-03-19T13:44:42.381Z,3.50
2023-03-19T13:47:37.526Z,2.95
2023-03-19T13:50:26.653Z,2.88
2023-03-19T13:53:13.725Z,3.40
2023-03-19T13:55:54.027Z,3.03
2023-03-19T13:58:45.092Z,2.92
2023-03-19T14:01:36.132Z,2.97
2023-03-19T14:04:06.239Z,2.70
2023-03-19T14:09:35.010Z,2.60
2023-03-19T14:12:31.996Z,2.55
2023-03-19T14:15:17.974Z,2.90
2023-03-19T14:18:01.886Z,2.47
2023-03-19T14:20:48.350Z,3.10
2023-03-19T14:23:38.459Z,3.17
2023-03-19T14:26:23.202Z,2.65
2023-03-19T14:29:01.777Z,2.90
2023-03-19T14:31:53.868Z,2.80
2023-03-19T14:34:40.427Z,2.60
2023-03-19T14:37:34.735Z,2.50
2023-03-19T14:40:16.197Z,2.95
2023-03-19T14:43:05.316Z,2.67
2023-03-19T14:45:43.187Z,2.63
2023-03-19T14:48:32.759Z,3.65
2023-03-19T14:51:26.783Z,3.13
2023-03-19T14:54:05.624Z,2.80
2023-03-19T14:56:35.619Z,2.40
2023-03-19T14:59:06.146Z,2.50
2023-03-19T15:01:38.658Z,2.28
2023-03-19T15:04:09.184Z,2.83
2023-03-19T15:06:41.674Z,2.47
2023-03-19T15:09:31.686Z,2.85
2023-03-19T15:12:38.565Z,2.38
2023-03-19T15:15:23.362Z,2.75
2023-03-19T15:18:04.491Z,2.42
2023-03-19T15:20:39.159Z,2.90
2023-03-19T15:23:20.008Z,2.45
2023-03-19T15:25:57.960Z,2.90
2023-03-19T15:28:28.201Z,2.58
2023-03-19T15:33:45.422Z,2.40
2023-03-19T15:36:27.644Z,2.42
2023-03-19T15:39:08.301Z,2.25
2023-03-19T15:41:41.024Z,2.60
2023-03-19T15:44:14.069Z,2.65
2023-03-19T15:46:46.134Z,2.53
2023-03-19T15:49:28.327Z,2.42
2023-03-19T15:52:01.228Z,2.60
2023-03-19T15:54:28.665Z,2.60
2023-03-19T15:56:57.294Z,2.40
2023-03-19T15:59:30.118Z,2.35
2023-03-19T16:02:00.671Z,2.40
2023-03-19T16:04:30.138Z,2.03
2023-03-19T16:06:58.709Z,2.13
2023-03-19T16:09:33.664Z,2.00
2023-03-19T16:12:01.689Z,2.28
2023-03-19T16:14:43.675Z,2.70
2023-03-19T16:17:16.201Z,2.05
2023-03-19T16:19:58.724Z,2.03
2023-03-19T16:22:31.552Z,2.15
2023-03-19T16:24:59.877Z,2.33
2023-03-19T16:27:36.479Z,2.10
2023-03-19T16:30:21.788Z,2.38
2023-03-19T16:33:06.985Z,2.60
2023-03-19T16:35:36.865Z,2.35
2023-03-19T16:38:22.525Z,2.60
2023-03-19T16:41:05.088Z,2.10
2023-03-19T16:43:36.807Z,2.22
2023-03-19T16:46:08.519Z,2.45
2023-03-19T16:48:35.809Z,2.50
2023-03-19T16:51:03.169Z,2.35
2023-03-19T16:53:31.988Z,2.42
2023-03-19T16:56:01.010Z,2.20
2023-03-19T16:58:43.479Z,2.40
2023-03-19T17:01:20.498Z,1.92
2023-03-19T17:03:49.726Z,2.60
2023-03-19T17:06:17.793Z,2.42
2023-03-19T17:08:45.428Z,2.30
2023-03-19T17:11:29.352Z,2.30
2023-03-19T17:13:58.836Z,1.85
2023-03-19T17:16:27.730Z,2.60
2023-03-19T17:18:56.376Z,1.98
2023-03-19T17:21:33.726Z,2.08
2023-03-19T17:24:29.729Z,2.08
2023-03-19T17:27:02.813Z,2.53
2023-03-19T17:29:30.899Z,1.90
2023-03-19T17:32:01.973Z,1.95
2023-03-19T17:34:33.765Z,2.13
2023-03-19T17:37:03.982Z,2.45
2023-03-19T17:39:31.715Z,2.17
2023-03-19T17:41:59.491Z,1.92
2023-03-19T17:44:28.129Z,2.25
2023-03-19T17:46:56.862Z,2.10
2023-03-19T17:49:29.146Z,2.75
2023-03-19T17:51:56.910Z,2.30
2023-03-19T17:54:26.909Z,2.15
2023-03-19T17:56:55.464Z,2.10
2023-03-19T17:59:23.270Z,2.38
2023-03-19T18:01:54.075Z,2.17
2023-03-19T18:04:22.535Z,2.30
2023-03-19T18:06:54.131Z,2.47
2023-03-19T18:09:28.701Z,2.03
2023-03-19T18:11:56.287Z,2.20
2023-03-19T18:14:23.394Z,2.40
2023-03-19T18:16:50.780Z,2.40
2023-03-19T18:19:32.309Z,2.13
2023-03-19T18:21:59.635Z,2.50
2023-03-19T18:24:26.919Z,2.40
2023-03-19T18:26:54.093Z,2.40
2023-03-19T18:29:21.203Z,2.10
2023-03-19T18:31:50.397Z,2.17
2023-03-19T18:34:18.403Z,2.47
2023-03-19T18:36:45.716Z,2.15
2023-03-19T18:39:14.806Z,2.50
2023-03-19T18:41:42.533Z,2.17
2023-03-19T18:44:09.984Z,2.80
2023-03-19T18:46:38.563Z,2.55
2023-03-19T18:49:26.560Z,2.67
2023-03-19T18:52:02.699Z,2.10
2023-03-19T18:54:31.470Z,2.20
2023-03-19T18:57:01.290Z,2.40
2023-03-19T18:59:31.039Z,2.67
2023-03-19T19:02:20.278Z,2.28
2023-03-19T19:04:47.506Z,2.30
2023-03-19T19:07:16.445Z,2.30
2023-03-19T19:09:44.002Z,2.30
2023-03-19T19:12:15.033Z,2.45
2023-03-19T19:14:43.229Z,2.35
2023-03-19T19:17:18.870Z,2.63
2023-03-19T19:19:45.946Z,2.53
2023-03-19T19:22:18.664Z,2.72
2023-03-19T19:24:46.428Z,3.15
2023-03-19T19:27:17.791Z,2.50
2023-03-19T19:29:45.913Z,2.55
2023-03-19T19:32:26.378Z,2.92
2023-03-19T19:34:53.808Z,2.80
2023-03-19T19:37:23.412Z,2.63
2023-03-19T19:39:51.318Z,2.95
2023-03-19T19:42:21.290Z,2.85
2023-03-19T19:44:55.882Z,3.28
2023-03-19T19:47:22.941Z,3.17
2023-03-19T19:49:50.129Z,2.80
2023-03-19T19:52:19.330Z,2.67
2023-03-19T19:54:47.162Z,3.65
2023-03-19T19:57:27.224Z,3.10
2023-03-19T19:59:55.706Z,2.65
2023-03-19T20:02:28.586Z,3.13
2023-03-19T20:04:57.019Z,3.40
2023-03-19T20:07:24.448Z,2.78
2023-03-19T20:09:51.637Z,3.30
2023-03-19T20:12:21.761Z,3.15
2023-03-19T20:14:50.315Z,3.55
2023-03-19T20:17:18.880Z,3.15
2023-03-19T20:19:46.176Z,3.25
2023-03-19T20:22:13.341Z,2.60
2023-03-19T20:24:40.790Z,2.80
2023-03-19T20:27:17.893Z,3.08
2023-03-19T20:29:45.293Z,2.90
2023-03-19T20:32:34.455Z,3.17
2023-03-19T20:35:02.221Z,3.30
2023-03-19T20:37:29.777Z,3.00
2023-03-19T20:39:57.011Z,3.22
2023-03-19T20:42:24.650Z,3.47
2023-03-19T20:44:57.396Z,3.38
2023-03-19T20:47:25.890Z,3.10
2023-03-19T20:49:53.526Z,3.30
2023-03-19T20:52:20.976Z,3.42
2023-03-19T20:54:49.043Z,3.03
2023-03-19T20:57:29.361Z,3.17
2023-03-19T21:02:25.332Z,3.05
2023-03-19T21:04:52.408Z,3.63
2023-03-19T21:07:36.429Z,3.28
2023-03-19T21:10:26.131Z,3.20
2023-03-19T21:12:53.386Z,3.33
2023-03-19T21:15:20.746Z,3.33
2023-03-19T21:17:47.878Z,2.90
2023-03-19T21:20:30.815Z,3.17
2023-03-19T21:23:35.483Z,3.28
2023-03-19T21:26:14.956Z,3.20
2023-03-19T21:28:42.796Z,3.17
2023-03-19T21:31:18.117Z,3.20
2023-03-19T21:33:45.897Z,3.20
2023-03-19T21:36:13.509Z,3.33
2023-03-19T21:38:41.112Z,3.03
2023-03-19T21:41:20.104Z,2.90
2023-03-19T21:43:52.585Z,3.20
2023-03-19T21:46:24.939Z,2.85
2023-03-19T21:48:54.587Z,3.17
2023-03-19T21:51:22.693Z,3.20
2023-03-19T21:53:50.142Z,2.97
2023-03-19T21:56:32.809Z,3.00
2023-03-19T21:59:06.774Z,3.30
2023-03-19T22:01:34.002Z,3.17
2023-03-19T22:04:01.153Z,3.25
2023-03-19T22:06:28.242Z,3.15
2023-03-19T22:08:55.642Z,3.17
2023-03-19T22:11:40.024Z,2.70
2023-03-19T22:14:15.773Z,3.30
2023-03-19T22:16:44.781Z,2.90
2023-03-19T22:19:14.872Z,3.30
2023-03-19T22:21:42.077Z,2.58
2023-03-19T22:24:09.402Z,2.83
2023-03-19T22:26:42.229Z,3.55
2023-03-19T22:29:17.728Z,3.00
2023-03-19T22:31:45.484Z,3.20
2023-03-19T22:34:18.281Z,2.80
2023-03-19T22:36:45.851Z,3.05
2023-03-19T22:39:13.070Z,3.40
2023-03-19T22:41:46.034Z,3.20
2023-03-19T22:44:28.122Z,3.00
2023-03-19T22:46:57.369Z,2.92
2023-03-19T22:49:24.985Z,3.30
2023-03-19T22:51:52.043Z,2.88
2023-03-19T22:54:19.112Z,2.28
2023-03-19T22:56:46.244Z,2.88
2023-03-19T22:59:14.199Z,3.00
2023-03-19T23:01:44.119Z,2.67
2023-03-19T23:04:22.209Z,3.08
2023-03-19T23:06:50.903Z,3.25
2023-03-19T23:09:28.219Z,2.83
2023-03-19T23:11:56.382Z,3.45
2023-03-19T23:14:30.006Z,3.20
2023-03-19T23:17:00.931Z,2.90
2023-03-19T23:19:36.786Z,2.90
2023-03-19T23:22:06.082Z,2.75
2023-03-19T23:24:33.984Z,2.92
2023-03-19T23:27:02.556Z,2.83
2023-03-19T23:29:37.338Z,2.80
2023-03-19T23:32:05.062Z,3.15
2023-03-19T23:34:35.372Z,2.88
2023-03-19T23:37:07.142Z,3.08
2023-03-19T23:39:34.318Z,2.92
2023-03-19T23:42:02.010Z,2.42
2023-03-19T23:44:29.373Z,3.25
2023-03-19T23:47:01.090Z,2.53
2023-03-19T23:49:30.387Z,2.83
2023-03-19T23:51:57.847Z,2.28
2023-03-19T23:54:29.471Z,2.80
2023-03-19T23:56:59.855Z,2.13
